Time;durP1;ratioP1;P1;durP2;ratioP2;P2;SDS_P1;SDS_P2;PMS_P1;PMS_P2;Temp;Humidity;BMP_temperature;BMP_pressure;BME280_temperature;BME280_humidity;BME280_pressure;Samples;Min_cycle;Max_cycle;Signal;HPM_P1;HPM_P2
2024/03/19 00:00:20;;;;;;;7.53;4.37;;;;;;;-1.33;100.00;101598.91;5068155;28;20213;-71
2024/03/19 00:02:47;;;;;;;7.73;4.13;;;;;;;-1.35;100.00;101599.38;5070400;28;20199;-71
2024/03/19 00:05:15;;;;;;;10.43;5.40;;;;;;;-1.36;100.00;101597.78;5063413;28;20808;-71
2024/03/19 00:07:41;;;;;;;9.67;5.40;;;;;;;-1.42;100.00;101593.47;5066066;28;20812;-71
2024/03/19 00:10:08;;;;;;;6.63;4.57;;;;;;;-1.43;100.00;101597.09;5063028;28;20198;-71
2024/03/19 00:12:34;;;;;;;6.93;4.90;;;;;;;-1.46;100.00;101600.13;5052742;28;20558;-71
2024/03/19 00:15:01;;;;;;;8.40;5.17;;;;;;;-1.52;100.00;101598.44;5064885;28;20230;-71
2024/03/19 00:17:27;;;;;;;11.80;4.93;;;;;;;-1.55;100.00;101599.66;5058528;28;20528;-71
2024/03/19 00:19:53;;;;;;;6.73;5.20;;;;;;;-1.67;100.00;101598.81;5060042;28;20209;-71
2024/03/19 00:22:22;;;;;;;6.93;4.37;;;;;;;-1.72;100.00;101595.31;5069966;28;20209;-71
2024/03/19 00:24:48;;;;;;;6.97;4.93;;;;;;;-1.68;100.00;101597.25;5059520;28;20457;-71
2024/03/19 00:27:15;;;;;;;7.83;4.60;;;;;;;-1.69;100.00;101600.03;5068361;28;20204;-71
2024/03/19 00:29:41;;;;;;;9.77;5.17;;;;;;;-1.74;100.00;101592.94;5066422;28;20445;-71
2024/03/19 00:32:07;;;;;;;13.03;7.10;;;;;;;-1.82;100.00;101595.06;5061292;28;20508;-71
2024/03/19 00:34:35;;;;;;;12.20;7.17;;;;;;;-1.87;100.00;101595.69;5067056;28;20448;-71
2024/03/19 00:37:03;;;;;;;16.77;8.37;;;;;;;-1.94;100.00;101594.22;5059534;28;20819;-71
2024/03/19 00:39:31;;;;;;;20.03;11.70;;;;;;;-1.96;100.00;101588.47;5059456;28;20535;-71
2024/03/19 00:41:58;;;;;;;9.80;6.10;;;;;;;-2.02;100.00;101584.16;5067695;28;20441;-71
2024/03/19 00:44:24;;;;;;;11.10;7.30;;;;;;;-2.02;100.00;101594.53;5071629;28;20472;-71
2024/03/19 00:46:51;;;;;;;12.83;6.90;;;;;;;-2.10;100.00;101590.44;5063495;28;20220;-72
2024/03/19 00:49:17;;;;;;;11.10;5.97;;;;;;;-2.13;100.00;101587.50;5065382;28;20448;-72
2024/03/19 00:51:43;;;;;;;12.90;6.30;;;;;;;-2.15;100.00;101592.06;5060283;28;20472;-72
2024/03/19 00:54:10;;;;;;;11.97;5.70;;;;;;;-2.13;100.00;101584.91;5054040;28;20456;-72
2024/03/19 00:56:37;;;;;;;12.07;6.23;;;;;;;-2.19;100.00;101583.19;5064098;28;20219;-71
2024/03/19 00:59:04;;;;;;;8.87;5.87;;;;;;;-2.20;100.00;101587.56;5074374;28;20440;-71
2024/03/19 01:01:31;;;;;;;9.10;5.53;;;;;;;-2.21;100.00;101587.78;5072233;28;20452;-71
2024/03/19 01:03:58;;;;;;;10.70;6.53;;;;;;;-2.27;100.00;101583.47;5049606;28;20217;-71
2024/03/19 01:06:25;;;;;;;11.10;6.30;;;;;;;-2.30;100.00;101589.06;5070904;28;20996;-71
2024/03/19 01:08:50;;;;;;;9.87;5.83;;;;;;;-2.35;100.00;101578.59;5066798;28;20463;-71
2024/03/19 01:11:17;;;;;;;11.53;5.93;;;;;;;-2.37;100.00;101584.00;5065490;28;20485;-71
2024/03/19 01:13:44;;;;;;;8.50;5.87;;;;;;;-2.35;100.00;101581.97;5055161;28;20210;-71
2024/03/19 01:16:11;;;;;;;10.23;5.83;;;;;;;-2.29;100.00;101585.50;5070214;28;20476;-71
2024/03/19 01:18:38;;;;;;;9.73;5.77;;;;;;;-2.33;100.00;101585.13;5068282;28;20453;-71
2024/03/19 01:21:05;;;;;;;10.63;6.23;;;;;;;-2.37;100.00;101583.19;5068812;28;20455;-71
2024/03/19 01:23:31;;;;;;;7.67;5.57;;;;;;;-2.34;100.00;101582.78;5066851;28;21014;-72
2024/03/19 01:25:57;;;;;;;8.67;5.83;;;;;;;-2.35;100.00;101581.97;5073358;28;20463;-72
2024/03/19 01:28:24;;;;;;;8.13;5.77;;;;;;;-2.38;100.00;101586.78;5067603;28;20465;-72
2024/03/19 01:30:51;;;;;;;9.33;5.70;;;;;;;-2.37;100.00;101578.81;5066334;28;20808;-71
2024/03/19 01:33:18;;;;;;;10.67;5.80;;;;;;;-2.34;100.00;101577.59;5071888;28;20478;-71
2024/03/19 01:35:45;;;;;;;8.77;4.90;;;;;;;-2.33;100.00;101572.19;5063425;28;20475;-71
2024/03/19 01:38:11;;;;;;;8.17;5.23;;;;;;;-2.36;100.00;101575.22;5068464;28;20536;-71
2024/03/19 01:40:40;;;;;;;11.47;6.10;;;;;;;-2.37;100.00;101576.22;5070012;28;20447;-71
2024/03/19 01:43:11;;;;;;;10.50;6.50;;;;;;;-2.39;100.00;101572.28;5073059;28;20450;-71
2024/03/19 01:45:38;;;;;;;11.20;6.30;;;;;;;-2.46;100.00;101567.19;5062487;28;21138;-71
2024/03/19 01:48:06;;;;;;;10.27;6.53;;;;;;;-2.45;100.00;101570.56;5062772;28;20493;-71
2024/03/19 01:50:35;;;;;;;10.83;6.10;;;;;;;-2.49;100.00;101577.16;5065712;28;20553;-71
2024/03/19 01:53:02;;;;;;;11.23;5.30;;;;;;;-2.49;100.00;101574.59;5068922;28;20470;-71
2024/03/19 01:55:28;;;;;;;8.63;5.87;;;;;;;-2.47;100.00;101570.78;5071188;28;20473;-71
2024/03/19 01:57:56;;;;;;;8.47;5.87;;;;;;;-2.57;100.00;101573.06;5072888;28;20451;-71
2024/03/19 02:00:23;;;;;;;14.80;6.27;;;;;;;-2.59;100.00;101563.94;5066446;28;20843;-71
2024/03/19 02:02:49;;;;;;;10.97;6.37;;;;;;;-2.62;100.00;101564.38;5067372;28;20460;-71
2024/03/19 02:05:17;;;;;;;12.27;6.57;;;;;;;-2.57;100.00;101567.09;5072487;28;20466;-71
2024/03/19 02:07:43;;;;;;;9.67;6.13;;;;;;;-2.52;100.00;101573.22;5065260;28;20537;-71
2024/03/19 02:10:10;;;;;;;10.10;6.60;;;;;;;-2.61;100.00;101563.34;5070862;28;20805;-71
2024/03/19 02:12:37;;;;;;;12.63;6.67;;;;;;;-2.68;100.00;101567.81;5053490;28;21051;-71
2024/03/19 02:15:03;;;;;;;9.50;5.73;;;;;;;-2.68;100.00;101563.44;5066499;28;20510;-71
2024/03/19 02:17:30;;;;;;;9.93;5.97;;;;;;;-2.67;100.00;101574.56;5063884;28;20461;-71
2024/03/19 02:19:57;;;;;;;9.40;5.83;;;;;;;-2.68;100.00;101560.88;5072149;28;20447;-71
2024/03/19 02:22:27;;;;;;;9.10;6.40;;;;;;;-2.65;100.00;101569.97;5054717;28;20500;-71
2024/03/19 02:24:53;;;;;;;9.13;5.40;;;;;;;-2.68;100.00;101560.88;5067341;28;20994;-71
2024/03/19 02:27:20;;;;;;;9.07;6.73;;;;;;;-2.67;100.00;101564.22;5064586;28;20471;-71
2024/03/19 02:29:46;;;;;;;10.63;5.90;;;;;;;-2.66;100.00;101564.00;5072271;28;20803;-71
2024/03/19 02:32:13;;;;;;;8.07;5.40;;;;;;;-2.68;100.00;101566.03;5054621;28;20538;-71
2024/03/19 02:34:39;;;;;;;9.67;5.37;;;;;;;-2.69;100.00;101567.00;5071697;28;20466;-71
2024/03/19 02:37:06;;;;;;;9.97;6.37;;;;;;;-2.74;100.00;101560.91;5072117;28;20968;-71
2024/03/19 02:39:34;;;;;;;9.27;6.10;;;;;;;-2.77;100.00;101561.34;5066842;28;20458;-71
2024/03/19 02:42:00;;;;;;;10.43;6.37;;;;;;;-2.88;100.00;101562.03;5064588;28;20446;-71
2024/03/19 02:44:26;;;;;;;9.50;6.10;;;;;;;-2.85;100.00;101570.16;5059694;28;20451;-71
2024/03/19 02:46:53;;;;;;;10.40;6.20;;;;;;;-2.80;100.00;101565.13;5058144;28;20471;-71
2024/03/19 02:49:19;;;;;;;11.60;6.10;;;;;;;-2.86;100.00;101570.38;5059355;28;20547;-71
2024/03/19 02:51:44;;;;;;;9.53;6.10;;;;;;;-2.84;100.00;101568.38;5056694;28;20459;-71
2024/03/19 02:54:11;;;;;;;10.30;6.50;;;;;;;-2.83;100.00;101562.19;5063028;28;20855;-71
2024/03/19 02:56:38;;;;;;;12.57;6.47;;;;;;;-2.95;100.00;101571.66;5067689;28;20302;-71
2024/03/19 02:59:05;;;;;;;11.20;6.23;;;;;;;-2.92;100.00;101563.47;5071876;28;20452;-71
2024/03/19 03:01:31;;;;;;;11.07;6.20;;;;;;;-2.89;100.00;101571.59;5060487;28;20547;-71
2024/03/19 03:03:58;;;;;;;11.90;6.63;;;;;;;-2.89;100.00;101573.38;5071708;28;20539;-71
2024/03/19 03:06:25;;;;;;;15.63;6.80;;;;;;;-2.92;100.00;101572.03;5068976;28;20476;-71
2024/03/19 03:08:51;;;;;;;11.57;6.77;;;;;;;-2.92;100.00;101569.44;5070460;28;20531;-71
2024/03/19 03:11:18;;;;;;;11.03;6.33;;;;;;;-2.99;100.00;101568.72;5071371;28;20455;-71
2024/03/19 03:13:45;;;;;;;11.07;6.60;;;;;;;-2.96;100.00;101580.41;5061235;28;20475;-71
2024/03/19 03:16:12;;;;;;;11.13;6.47;;;;;;;-2.93;100.00;101575.63;5067807;28;21074;-71
2024/03/19 03:18:38;;;;;;;12.17;6.93;;;;;;;-2.92;100.00;101577.19;5060912;28;20452;-71
2024/03/19 03:21:05;;;;;;;11.60;6.30;;;;;;;-2.96;100.00;101581.19;5067777;28;20451;-71
2024/03/19 03:23:31;;;;;;;11.30;6.73;;;;;;;-2.98;100.00;101579.81;5067236;28;20799;-71
2024/03/19 03:25:58;;;;;;;14.60;6.83;;;;;;;-3.02;100.00;101574.28;5067735;28;20482;-71
2024/03/19 03:28:24;;;;;;;10.93;6.40;;;;;;;-3.04;100.00;101586.66;5068393;28;20476;-71
2024/03/19 03:30:52;;;;;;;11.70;7.17;;;;;;;-3.00;100.00;101590.38;5064521;28;20453;-71
2024/03/19 03:33:18;;;;;;;11.47;6.90;;;;;;;-2.99;100.00;101593.75;5067024;28;20479;-71
2024/03/19 03:35:45;;;;;;;9.83;6.43;;;;;;;-3.01;100.00;101600.94;5071013;28;20469;-71
2024/03/19 03:38:11;;;;;;;9.87;6.47;;;;;;;-3.01;100.00;101588.78;5064566;28;20446;-71
2024/03/19 03:40:37;;;;;;;11.47;6.10;;;;;;;-3.05;100.00;101598.00;5069301;28;20452;-71
2024/03/19 03:43:04;;;;;;;8.27;5.53;;;;;;;-3.07;100.00;101589.63;5067902;28;20453;-72
2024/03/19 03:45:30;;;;;;;12.37;6.57;;;;;;;-3.07;100.00;101599.19;5070750;28;20473;-71
2024/03/19 03:47:58;;;;;;;9.43;6.57;;;;;;;-3.12;100.00;101596.47;5061095;28;21102;-71
2024/03/19 03:50:24;;;;;;;11.43;6.77;;;;;;;-3.17;100.00;101596.28;5060595;28;20508;-71
2024/03/19 03:52:51;;;;;;;10.90;6.20;;;;;;;-3.17;100.00;101599.66;5066093;28;20496;-71
2024/03/19 03:55:17;;;;;;;14.23;6.73;;;;;;;-3.14;100.00;101599.25;5070907;28;20824;-71
2024/03/19 03:57:45;;;;;;;8.83;6.03;;;;;;;-3.14;100.00;101595.84;5066781;28;20531;-71
2024/03/19 04:00:13;;;;;;;11.57;5.93;;;;;;;-3.11;100.00;101591.06;5064812;28;20450;-71
2024/03/19 04:02:43;;;;;;;13.50;6.33;;;;;;;-3.18;100.00;101597.28;5053254;28;20956;-71
2024/03/19 04:05:11;;;;;;;9.97;6.47;;;;;;;-3.19;100.00;101593.13;5070798;28;20469;-72
2024/03/19 04:07:40;;;;;;;11.33;6.27;;;;;;;-3.21;100.00;101598.47;5064060;28;20445;-72
2024/03/19 04:10:07;;;;;;;10.43;6.23;;;;;;;-3.19;100.00;101596.50;5070965;28;20448;-72
2024/03/19 04:12:33;;;;;;;8.20;6.17;;;;;;;-3.19;100.00;101595.69;5048882;28;20506;-71
2024/03/19 04:15:00;;;;;;;12.70;6.63;;;;;;;-3.19;100.00;101601.66;5052190;28;20472;-71
2024/03/19 04:17:27;;;;;;;13.20;6.80;;;;;;;-3.23;100.00;101597.91;5063333;28;20450;-71
2024/03/19 04:19:53;;;;;;;13.67;6.50;;;;;;;-3.25;100.00;101599.13;5068260;28;20452;-71
2024/03/19 04:22:21;;;;;;;11.20;6.50;;;;;;;-3.25;100.00;101592.19;5067666;28;20448;-71
2024/03/19 04:24:48;;;;;;;13.17;6.67;;;;;;;-3.25;100.00;101596.53;5056098;28;20469;-71
2024/03/19 04:27:14;;;;;;;10.43;6.57;;;;;;;-3.28;100.00;101592.59;5068421;28;20448;-71
2024/03/19 04:29:41;;;;;;;10.33;7.30;;;;;;;-3.30;100.00;101591.22;5063510;28;20457;-72
2024/03/19 04:32:08;;;;;;;11.67;6.90;;;;;;;-3.31;100.00;101595.56;5062954;28;20446;-72
2024/03/19 04:34:34;;;;;;;12.00;7.40;;;;;;;-3.31;100.00;101598.16;5070638;28;20448;-72
2024/03/19 04:37:00;;;;;;;12.43;6.90;;;;;;;-3.30;100.00;101599.75;5067302;28;20474;-71
2024/03/19 04:39:28;;;;;;;11.93;7.30;;;;;;;-3.30;100.00;101612.69;5067784;28;20454;-71
2024/03/19 04:41:55;;;;;;;12.97;7.43;;;;;;;-3.30;100.00;101610.09;5065609;28;20441;-71
2024/03/19 04:44:21;;;;;;;12.87;7.73;;;;;;;-3.33;100.00;101604.56;5060723;28;20449;-71
2024/03/19 04:46:48;;;;;;;14.90;7.40;;;;;;;-3.36;100.00;101610.94;5061888;28;20478;-71
2024/03/19 04:49:14;;;;;;;12.13;7.53;;;;;;;-3.38;100.00;101610.34;5069401;28;20821;-71
2024/03/19 04:51:41;;;;;;;16.07;8.13;;;;;;;-3.45;100.00;101601.06;5070710;28;20443;-71
2024/03/19 04:54:07;;;;;;;13.97;7.47;;;;;;;-3.49;100.00;101603.25;5064672;28;20483;-71
2024/03/19 04:56:35;;;;;;;11.90;6.97;;;;;;;-3.47;100.00;101597.91;5068991;28;20841;-71
2024/03/19 04:59:01;;;;;;;16.60;8.07;;;;;;;-3.49;100.00;101600.69;5070461;28;20452;-71
2024/03/19 05:01:28;;;;;;;16.47;8.30;;;;;;;-3.50;100.00;101598.31;5064668;28;20447;-71
2024/03/19 05:03:54;;;;;;;14.40;7.87;;;;;;;-3.56;100.00;101601.72;5070516;28;20437;-72
2024/03/19 05:06:20;;;;;;;17.33;8.43;;;;;;;-3.56;100.00;101607.69;5065646;28;20469;-72
2024/03/19 05:08:47;;;;;;;16.93;8.73;;;;;;;-3.59;100.00;101604.69;5070903;28;20798;-72
2024/03/19 05:11:14;;;;;;;15.47;7.70;;;;;;;-3.60;100.00;101608.28;5067251;28;20489;-72
2024/03/19 05:13:41;;;;;;;14.60;8.57;;;;;;;-3.56;100.00;101615.44;5064903;28;21067;-72
2024/03/19 05:16:08;;;;;;;15.37;8.53;;;;;;;-3.57;100.00;101611.25;5070309;28;20836;-71
2024/03/19 05:18:34;;;;;;;16.60;9.43;;;;;;;-3.56;100.00;101610.28;5064402;28;20533;-71
2024/03/19 05:21:00;;;;;;;19.97;9.23;;;;;;;-3.55;100.00;101611.84;5065850;28;20444;-71
2024/03/19 05:23:27;;;;;;;17.87;9.83;;;;;;;-3.55;100.00;101614.44;5066996;28;20818;-71
2024/03/19 05:25:53;;;;;;;21.10;10.13;;;;;;;-3.52;100.00;101616.56;5057618;28;20458;-71
2024/03/19 05:28:20;;;;;;;18.13;10.20;;;;;;;-3.49;100.00;101625.69;5073611;28;20445;-71
2024/03/19 05:30:47;;;;;;;21.83;10.37;;;;;;;-3.43;100.00;101625.66;5070873;28;20450;-72
2024/03/19 05:33:14;;;;;;;18.80;10.47;;;;;;;-3.31;100.00;101633.53;5073293;28;20890;-72
2024/03/19 05:35:41;;;;;;;20.07;10.80;;;;;;;-3.30;100.00;101632.53;5071844;28;20534;-72
2024/03/19 05:38:08;;;;;;;21.53;10.20;;;;;;;-3.27;100.00;101630.31;5065646;28;20460;-71
2024/03/19 05:40:35;;;;;;;21.37;11.73;;;;;;;-3.23;100.00;101639.22;5068450;28;20449;-71
2024/03/19 05:43:02;;;;;;;23.53;11.73;;;;;;;-3.14;100.00;101638.00;5073252;28;20434;-71
2024/03/19 05:45:30;;;;;;;22.97;11.23;;;;;;;-3.06;100.00;101629.97;5073190;28;20480;-71
2024/03/19 05:47:57;;;;;;;24.47;12.27;;;;;;;-3.02;100.00;101631.13;5066701;28;20945;-72
2024/03/19 05:50:24;;;;;;;24.60;12.07;;;;;;;-2.96;100.00;101627.69;5061394;28;20451;-71
2024/03/19 05:52:50;;;;;;;24.60;12.27;;;;;;;-2.90;100.00;101632.03;5061185;28;20470;-71
2024/03/19 05:55:17;;;;;;;26.80;12.73;;;;;;;-2.78;100.00;101625.19;5069975;28;20545;-71
2024/03/19 05:57:43;;;;;;;33.80;15.97;;;;;;;-2.74;100.00;101625.53;5070350;28;20454;-71
2024/03/19 06:00:13;;;;;;;29.03;13.40;;;;;;;-2.66;100.00;101631.22;5070951;28;20451;-71
2024/03/19 06:02:40;;;;;;;32.03;14.50;;;;;;;-2.56;100.00;101622.97;5060249;28;20452;-71
2024/03/19 06:05:09;;;;;;;28.93;14.53;;;;;;;-2.53;100.00;101625.13;5064878;28;20480;-72
2024/03/19 06:07:35;;;;;;;31.33;14.63;;;;;;;-2.47;100.00;101627.66;5063912;28;20453;-72
2024/03/19 06:10:02;;;;;;;38.73;14.10;;;;;;;-2.37;100.00;101630.53;5066586;28;20463;-72
2024/03/19 06:12:28;;;;;;;25.23;12.63;;;;;;;-2.30;100.00;101639.00;5068721;28;20823;-72
2024/03/19 06:14:55;;;;;;;31.43;12.97;;;;;;;-2.22;100.00;101627.59;5062552;28;20994;-71
2024/03/19 06:17:21;;;;;;;34.63;17.63;;;;;;;-2.17;100.00;101631.13;5066570;28;20447;-72
2024/03/19 06:19:48;;;;;;;30.60;14.37;;;;;;;-2.11;100.00;101632.84;5069224;28;20471;-72
2024/03/19 06:22:15;;;;;;;34.20;15.90;;;;;;;-2.05;100.00;101637.16;5067350;28;20457;-71
2024/03/19 06:24:42;;;;;;;29.00;14.83;;;;;;;-1.98;100.00;101637.84;5067326;28;20459;-71
2024/03/19 06:27:09;;;;;;;30.80;14.97;;;;;;;-1.90;100.00;101641.94;5064697;28;20462;-72
2024/03/19 06:29:35;;;;;;;37.63;16.50;;;;;;;-1.84;100.00;101641.88;5061780;28;20453;-71
2024/03/19 06:32:01;;;;;;;31.13;15.17;;;;;;;-1.76;100.00;101643.38;5053199;28;20697;-71
2024/03/19 06:34:28;;;;;;;34.20;14.67;;;;;;;-1.68;100.00;101649.03;5061410;28;20206;-71
2024/03/19 06:36:57;;;;;;;31.20;15.33;;;;;;;-1.63;100.00;101643.97;5061406;28;20458;-71
2024/03/19 06:39:25;;;;;;;31.80;15.73;;;;;;;-1.55;100.00;101641.09;5064457;28;20194;-71
2024/03/19 06:41:51;;;;;;;31.40;16.43;;;;;;;-1.49;100.00;101635.03;5066941;28;20201;-72
2024/03/19 06:44:18;;;;;;;32.80;15.50;;;;;;;-1.41;100.00;101641.72;5058098;28;20195;-71
2024/03/19 06:46:44;;;;;;;35.93;16.67;;;;;;;-1.33;100.00;101647.34;5041419;28;20237;-71
2024/03/19 06:49:11;;;;;;;35.13;16.53;;;;;;;-1.25;100.00;101654.03;5066227;28;20207;-71
2024/03/19 06:51:37;;;;;;;34.53;16.83;;;;;;;-1.17;100.00;101658.88;5071613;28;20685;-71
2024/03/19 06:54:05;;;;;;;33.67;16.80;;;;;;;-1.12;100.00;101655.38;5069648;28;20218;-71
2024/03/19 06:56:33;;;;;;;38.57;16.23;;;;;;;-1.02;100.00;101656.66;5068443;28;20298;-71
2024/03/19 06:58:59;;;;;;;30.33;16.20;;;;;;;-0.94;100.00;101658.94;5049996;28;20575;-71
2024/03/19 07:01:27;;;;;;;32.07;16.07;;;;;;;-0.82;100.00;101661.31;5069577;28;20205;-71
2024/03/19 07:03:54;;;;;;;31.60;16.27;;;;;;;-0.73;100.00;101667.75;5057908;28;20235;-71
2024/03/19 07:06:21;;;;;;;38.27;18.43;;;;;;;-0.63;100.00;101673.16;5067418;28;20228;-71
2024/03/19 07:08:53;;;;;;;30.90;15.77;;;;;;;-0.50;100.00;101675.53;5061908;28;20206;-72
2024/03/19 07:11:19;;;;;;;31.90;15.83;;;;;;;-0.37;100.00;101666.72;5066558;28;20210;-72
2024/03/19 07:13:47;;;;;;;33.30;17.10;;;;;;;-0.25;100.00;101672.72;5067252;28;20704;-72
2024/03/19 07:16:13;;;;;;;35.50;16.87;;;;;;;-0.15;100.00;101678.13;5062990;28;20219;-72
2024/03/19 07:18:40;;;;;;;35.63;18.20;;;;;;;-0.05;100.00;101686.88;5064176;28;20202;-72
2024/03/19 07:21:06;;;;;;;33.70;17.53;;;;;;;0.06;100.00;101687.91;5062973;28;20297;-72
2024/03/19 07:23:32;;;;;;;34.07;16.77;;;;;;;0.18;100.00;101686.06;5065178;28;20546;-72
2024/03/19 07:25:59;;;;;;;33.33;18.27;;;;;;;0.26;100.00;101689.06;5057354;28;20223;-72
2024/03/19 07:28:25;;;;;;;35.93;16.83;;;;;;;0.37;100.00;101692.66;5066112;28;20542;-72
2024/03/19 07:30:53;;;;;;;30.30;16.13;;;;;;;0.45;100.00;101685.28;5063260;28;20238;-72
2024/03/19 07:33:19;;;;;;;35.53;17.03;;;;;;;0.57;100.00;101699.00;5064407;28;20221;-72
2024/03/19 07:35:46;;;;;;;30.23;16.43;;;;;;;0.67;100.00;101701.81;5061292;28;20558;-72
2024/03/19 07:38:12;;;;;;;27.00;15.70;;;;;;;0.75;100.00;101701.44;5067156;28;20201;-72
2024/03/19 07:40:39;;;;;;;30.13;16.17;;;;;;;0.87;100.00;101709.16;5063923;28;20209;-72
2024/03/19 07:43:05;;;;;;;27.40;14.63;;;;;;;1.05;100.00;101698.56;5062039;28;20198;-72
2024/03/19 07:45:31;;;;;;;32.53;15.53;;;;;;;1.12;100.00;101705.19;5064645;28;20223;-71
2024/03/19 07:48:04;;;;;;;33.07;16.70;;;;;;;1.26;100.00;101685.63;5062627;28;20206;-71
2024/03/19 07:50:32;;;;;;;27.13;15.70;;;;;;;1.38;100.00;101694.16;5060325;28;20248;-72
2024/03/19 07:52:59;;;;;;;27.30;14.17;;;;;;;1.46;100.00;101690.38;5066254;28;20198;-72
2024/03/19 07:55:25;;;;;;;29.03;14.87;;;;;;;1.59;100.00;101697.81;5062302;28;20798;-72
2024/03/19 07:57:52;;;;;;;29.37;16.03;;;;;;;1.68;100.00;101693.81;5066073;28;20201;-72
2024/03/19 08:00:19;;;;;;;25.50;13.07;;;;;;;1.79;100.00;101698.91;5064963;28;20199;-72
2024/03/19 08:02:45;;;;;;;22.73;12.93;;;;;;;1.90;100.00;101695.41;5064863;28;20199;-72
2024/03/19 08:05:13;;;;;;;22.03;12.80;;;;;;;2.00;100.00;101703.34;5057779;28;20215;-72
2024/03/19 08:07:41;;;;;;;24.03;12.53;;;;;;;2.12;100.00;101700.63;5059274;28;20264;-72
2024/03/19 08:10:08;;;;;;;23.40;12.20;;;;;;;2.23;100.00;101694.53;5063885;28;20314;-72
2024/03/19 08:12:35;;;;;;;21.83;11.67;;;;;;;2.32;100.00;101691.25;5059678;28;20740;-72
2024/03/19 08:15:02;;;;;;;19.17;10.80;;;;;;;2.42;100.00;101688.75;5062226;28;20586;-72
2024/03/19 08:17:29;;;;;;;18.97;11.27;;;;;;;2.53;100.00;101692.22;5061795;28;20202;-72
2024/03/19 08:19:56;;;;;;;26.53;12.60;;;;;;;2.64;100.00;101689.50;5058468;28;20202;-72
2024/03/19 08:22:24;;;;;;;18.53;11.77;;;;;;;2.70;100.00;101685.88;5062464;28;20244;-72
2024/03/19 08:24:52;;;;;;;26.33;11.87;;;;;;;2.82;100.00;101690.97;5065325;28;20191;-72
2024/03/19 08:27:18;;;;;;;22.63;11.13;;;;;;;2.93;100.00;101690.81;5059937;28;20198;-72
2024/03/19 08:29:45;;;;;;;22.30;11.87;;;;;;;3.02;100.00;101691.16;5059876;28;20206;-72
2024/03/19 08:32:12;;;;;;;20.27;11.77;;;;;;;3.13;100.00;101687.59;5059977;28;20700;-72
2024/03/19 08:34:39;;;;;;;20.43;11.10;;;;;;;3.20;100.00;101688.94;5060016;28;20211;-72
2024/03/19 08:37:06;;;;;;;19.13;11.10;;;;;;;3.30;100.00;101691.63;5060460;28;20199;-72
2024/03/19 08:39:33;;;;;;;17.67;10.83;;;;;;;3.42;100.00;101694.06;5060429;28;20601;-72
2024/03/19 08:42:00;;;;;;;21.83;11.77;;;;;;;3.52;100.00;101704.59;5060220;28;20668;-72
2024/03/19 08:44:26;;;;;;;17.70;10.83;;;;;;;3.62;100.00;101707.25;5065073;28;20248;-72
2024/03/19 08:46:52;;;;;;;19.73;10.10;;;;;;;3.72;100.00;101709.91;5059660;28;20803;-72
2024/03/19 08:49:19;;;;;;;12.97;9.23;;;;;;;3.81;100.00;101709.22;5057203;28;20225;-72
2024/03/19 08:51:46;;;;;;;16.40;9.07;;;;;;;3.89;100.00;101705.34;5058078;28;20199;-72
2024/03/19 08:54:12;;;;;;;15.00;8.90;;;;;;;4.01;100.00;101711.13;5061285;28;20210;-72
2024/03/19 08:56:40;;;;;;;12.87;8.33;;;;;;;4.10;100.00;101707.78;5063445;28;20697;-72
2024/03/19 08:59:06;;;;;;;12.57;8.43;;;;;;;4.19;100.00;101713.31;5065805;28;20748;-72
2024/03/19 09:01:32;;;;;;;13.67;8.50;;;;;;;4.25;100.00;101712.28;5067768;28;20194;-72
2024/03/19 09:03:59;;;;;;;13.50;8.70;;;;;;;4.34;100.00;101708.13;5065351;28;20567;-72
2024/03/19 09:06:26;;;;;;;12.77;8.17;;;;;;;4.44;100.00;101710.78;5060500;28;20230;-72
2024/03/19 09:08:53;;;;;;;14.13;8.27;;;;;;;4.52;100.00;101711.06;5063811;28;20210;-72
2024/03/19 09:11:20;;;;;;;13.07;8.20;;;;;;;4.62;100.00;101713.69;5061098;28;20214;-72
2024/03/19 09:13:47;;;;;;;12.90;8.20;;;;;;;4.69;100.00;101716.06;5065875;28;20198;-72
2024/03/19 09:16:14;;;;;;;14.77;7.93;;;;;;;4.75;100.00;101717.66;5065479;28;20681;-72
2024/03/19 09:18:42;;;;;;;14.40;7.80;;;;;;;4.86;100.00;101719.25;5066486;28;20198;-72
2024/03/19 09:21:09;;;;;;;12.17;7.43;;;;;;;4.94;100.00;101709.06;5062830;28;20203;-72
2024/03/19 09:23:36;;;;;;;12.73;8.93;;;;;;;5.01;100.00;101711.41;5062744;28;20229;-72
2024/03/19 09:26:02;;;;;;;12.87;8.83;;;;;;;5.06;100.00;101712.22;5044464;28;20230;-72
2024/03/19 09:28:31;;;;;;;11.87;7.90;;;;;;;5.14;100.00;101722.16;5066304;28;20196;-72
2024/03/19 09:30:59;;;;;;;15.07;8.97;;;;;;;5.23;100.00;101714.56;5061916;28;20248;-72
2024/03/19 09:33:25;;;;;;;12.27;8.00;;;;;;;5.32;100.00;101712.97;5065604;28;20191;-72
2024/03/19 09:35:52;;;;;;;12.77;8.00;;;;;;;5.39;100.00;101719.53;5063294;28;20313;-72
2024/03/19 09:38:19;;;;;;;14.93;8.93;;;;;;;5.46;100.00;101717.44;5060154;28;20755;-72
2024/03/19 09:40:53;;;;;;;15.27;8.47;;;;;;;5.52;100.00;101702.50;5063335;28;20236;-72
2024/03/19 09:43:22;;;;;;;15.00;8.70;;;;;;;5.58;100.00;101702.22;5065284;28;20203;-72
2024/03/19 09:45:49;;;;;;;12.33;8.23;;;;;;;5.69;100.00;101708.25;5062057;28;20225;-72
2024/03/19 09:48:19;;;;;;;15.60;8.53;;;;;;;5.75;100.00;101710.56;5062662;28;20802;-72
2024/03/19 09:50:45;;;;;;;12.37;8.73;;;;;;;5.82;100.00;101708.50;5063982;28;20742;-72
2024/03/19 09:53:17;;;;;;;13.17;7.93;;;;;;;5.89;100.00;101700.34;5062435;28;20210;-72
2024/03/19 09:55:45;;;;;;;13.03;7.87;;;;;;;5.96;100.00;101703.47;5062490;28;20795;-72
2024/03/19 09:58:13;;;;;;;13.50;8.83;;;;;;;6.00;100.00;101701.91;5061334;28;20229;-72
2024/03/19 10:00:44;;;;;;;18.80;9.13;;;;;;;6.07;100.00;101711.03;5061719;28;20317;-72
2024/03/19 10:03:10;;;;;;;12.07;8.23;;;;;;;6.15;100.00;101705.25;5058749;28;20262;-72
2024/03/19 10:05:38;;;;;;;13.00;8.83;;;;;;;6.23;100.00;101704.69;5057774;28;20211;-72
2024/03/19 10:08:06;;;;;;;11.90;7.57;;;;;;;6.30;100.00;101709.63;5063927;28;20526;-72
2024/03/19 10:10:32;;;;;;;11.03;8.00;;;;;;;6.36;100.00;101714.59;5060939;28;20198;-72
2024/03/19 10:12:59;;;;;;;12.17;8.07;;;;;;;6.42;96.55;101708.25;5061071;28;20277;-72
2024/03/19 10:15:27;;;;;;;12.40;7.90;;;;;;;6.46;92.73;101711.91;5063625;28;20241;-72
2024/03/19 10:17:56;;;;;;;12.00;8.10;;;;;;;6.50;100.00;101712.97;5061623;28;20210;-72
2024/03/19 10:20:23;;;;;;;12.47;7.87;;;;;;;6.57;100.00;101700.31;5064712;28;20208;-72
2024/03/19 10:22:50;;;;;;;12.50;8.43;;;;;;;6.63;100.00;101699.22;5059605;28;20264;-72
2024/03/19 10:25:17;;;;;;;12.57;8.43;;;;;;;6.70;100.00;101698.94;5059810;28;20219;-72
2024/03/19 10:27:44;;;;;;;12.70;8.47;;;;;;;6.74;96.13;101700.72;5061543;28;20241;-72
2024/03/19 10:30:12;;;;;;;15.30;9.90;;;;;;;6.77;87.75;101696.78;5060736;28;20270;-72
2024/03/19 10:32:39;;;;;;;13.20;8.60;;;;;;;6.83;91.02;101706.97;5062079;28;20191;-72
2024/03/19 10:35:16;;;;;;;13.50;9.10;;;;;;;6.87;90.35;101699.31;5060754;28;20747;-72
2024/03/19 10:37:44;;;;;;;14.77;8.80;;;;;;;6.93;95.20;101699.03;5062433;28;20198;-72
2024/03/19 10:40:14;;;;;;;11.93;8.03;;;;;;;6.98;93.08;101706.88;5065891;28;20224;-72
2024/03/19 10:42:41;;;;;;;19.20;10.97;;;;;;;7.03;95.55;101704.22;5061409;28;20197;-72
2024/03/19 10:45:15;;;;;;;11.83;8.20;;;;;;;7.09;90.00;101707.59;5061199;28;20689;-72
2024/03/19 10:47:42;;;;;;;10.53;7.60;;;;;;;7.17;78.02;101702.53;5056339;28;20197;-72
2024/03/19 10:50:14;;;;;;;11.77;8.07;;;;;;;7.23;89.02;101700.63;5059558;28;20211;-72
2024/03/19 10:52:43;;;;;;;14.40;8.60;;;;;;;7.29;83.84;101697.69;5060516;28;20195;-72
2024/03/19 10:55:14;;;;;;;12.10;7.97;;;;;;;7.35;91.40;101693.19;5062075;28;20632;-72
2024/03/19 10:57:41;;;;;;;10.87;7.63;;;;;;;7.40;84.60;101699.16;5061153;28;20199;-72
2024/03/19 11:00:17;;;;;;;12.53;7.97;;;;;;;7.48;81.67;101695.16;5059392;28;20195;-72
2024/03/19 11:02:47;;;;;;;10.47;7.80;;;;;;;7.53;78.38;101690.66;5059597;28;20195;-72
2024/03/19 11:05:18;;;;;;;11.23;7.50;;;;;;;7.60;81.96;101693.72;5060949;28;20219;-72
2024/03/19 11:07:45;;;;;;;11.50;7.43;;;;;;;7.66;91.98;101692.59;5059054;28;20552;-72
2024/03/19 11:10:22;;;;;;;12.30;7.87;;;;;;;7.72;100.00;101690.72;5060977;28;20203;-72